createdAt,value
2022-10-17T00:02:12.771Z,8.15
2022-10-17T00:04:39.458Z,7.53
2022-10-17T00:07:06.003Z,5.13
2022-10-17T00:09:32.482Z,5.25
2022-10-17T00:11:59.149Z,5.68
2022-10-17T00:14:25.640Z,8.57
2022-10-17T00:16:52.152Z,9.37
2022-10-17T00:19:18.751Z,6.35
2022-10-17T00:21:45.283Z,4.10
2022-10-17T00:24:11.858Z,5.68
2022-10-17T00:26:38.415Z,12.35
2022-10-17T00:29:04.948Z,4.77
2022-10-17T00:31:31.858Z,5.53
2022-10-17T00:33:58.526Z,5.10
2022-10-17T00:36:28.081Z,4.53
2022-10-17T00:38:57.756Z,7.93
2022-10-17T00:41:29.203Z,4.90
2022-10-17T00:44:30.186Z,7.65
2022-10-17T00:47:04.958Z,5.43
2022-10-17T00:49:35.760Z,4.47
2022-10-17T00:52:06.254Z,4.97
2022-10-17T00:54:40.908Z,5.37
2022-10-17T00:57:07.610Z,4.60
2022-10-17T00:59:36.086Z,4.60
2022-10-17T01:02:08.919Z,5.05
2022-10-17T01:04:40.670Z,8.02
2022-10-17T01:07:07.197Z,4.70
2022-10-17T01:09:34.352Z,10.30
2022-10-17T01:12:09.548Z,5.60
2022-10-17T01:14:47.040Z,8.65
2022-10-17T01:17:22.401Z,10.80
2022-10-17T01:20:10.856Z,4.70
2022-10-17T01:22:49.693Z,4.95
2022-10-17T01:25:29.772Z,6.82
2022-10-17T01:28:32.947Z,11.40
2022-10-17T01:31:16.678Z,6.63
2022-10-17T01:34:01.249Z,4.60
2022-10-17T01:36:39.248Z,6.70
2022-10-17T01:39:17.272Z,7.05
2022-10-17T01:41:52.801Z,5.65
2022-10-17T01:44:34.554Z,7.07
2022-10-17T01:47:06.697Z,5.43
2022-10-17T01:49:35.556Z,4.97
2022-10-17T01:52:09.594Z,6.45
2022-10-17T01:54:47.624Z,5.65
2022-10-17T01:57:29.617Z,7.28
2022-10-17T01:59:57.314Z,4.90
2022-10-17T02:02:26.393Z,7.28
2022-10-17T02:04:55.586Z,5.47
2022-10-17T02:07:22.080Z,8.85
2022-10-17T02:09:48.818Z,4.68
2022-10-17T02:12:30.646Z,5.67
2022-10-17T02:15:02.943Z,6.50
2022-10-17T02:18:00.543Z,5.28
2022-10-17T02:20:33.018Z,6.88
2022-10-17T02:25:50.176Z,5.47
2022-10-17T02:28:22.198Z,6.90
2022-10-17T02:30:59.134Z,6.60
2022-10-17T02:33:31.839Z,5.75
2022-10-17T02:36:04.751Z,6.55
2022-10-17T02:38:32.918Z,11.77
2022-10-17T02:41:01.136Z,9.52
2022-10-17T02:43:28.689Z,7.97
2022-10-17T02:45:56.918Z,7.35
2022-10-17T02:48:37.348Z,8.40
2022-10-17T02:51:24.032Z,6.17
2022-10-17T02:54:09.118Z,6.22
2022-10-17T02:56:43.573Z,6.95
2022-10-17T02:59:14.210Z,11.85
2022-10-17T03:01:41.865Z,6.70
2022-10-17T03:04:14.074Z,9.20
2022-10-17T03:06:41.450Z,7.63
2022-10-17T03:09:08.406Z,8.60
2022-10-17T03:11:36.157Z,10.95
2022-10-17T03:14:02.992Z,7.75
2022-10-17T03:16:29.547Z,10.03
2022-10-17T03:18:56.525Z,7.45
2022-10-17T03:21:23.160Z,7.78
2022-10-17T03:23:49.695Z,8.35
2022-10-17T03:26:16.763Z,7.00
2022-10-17T03:28:43.353Z,7.27
2022-10-17T03:31:14.299Z,7.15
2022-10-17T03:33:40.959Z,6.50
2022-10-17T03:36:17.034Z,6.70
2022-10-17T03:38:44.750Z,15.65
2022-10-17T03:41:11.679Z,7.67
2022-10-17T03:43:39.561Z,7.78
2022-10-17T03:46:07.226Z,10.30
2022-10-17T03:48:34.247Z,9.65
2022-10-17T03:51:02.460Z,7.60
2022-10-17T03:53:29.164Z,8.23
2022-10-17T03:55:58.878Z,9.70
2022-10-17T03:58:25.346Z,9.07
2022-10-17T04:00:52.771Z,8.52
2022-10-17T04:03:20.548Z,7.28
2022-10-17T04:05:46.963Z,7.47
2022-10-17T04:08:13.459Z,10.73
2022-10-17T04:10:40.114Z,9.30
2022-10-17T04:13:06.767Z,6.72
2022-10-17T04:15:33.404Z,10.50
2022-10-17T04:17:59.878Z,5.30
2022-10-17T04:20:26.985Z,7.68
2022-10-17T04:22:53.497Z,10.18
2022-10-17T04:25:20.401Z,11.05
2022-10-17T04:27:46.987Z,6.97
2022-10-17T04:30:13.544Z,10.37
2022-10-17T04:32:40.803Z,7.55
2022-10-17T04:35:07.673Z,14.13
2022-10-17T04:37:34.211Z,20.48
2022-10-17T04:40:00.741Z,7.32
2022-10-17T04:42:30.843Z,7.20
2022-10-17T04:44:59.989Z,6.57
2022-10-17T04:47:26.972Z,8.75
2022-10-17T04:49:53.686Z,7.13
2022-10-17T04:52:20.248Z,6.13
2022-10-17T04:54:46.999Z,6.13
2022-10-17T04:57:13.933Z,7.45
2022-10-17T04:59:41.605Z,7.45
2022-10-17T05:02:08.160Z,12.18
2022-10-17T05:04:35.924Z,8.45
2022-10-17T05:07:02.694Z,9.60
2022-10-17T05:09:29.380Z,9.15
2022-10-17T05:11:56.059Z,8.18
2022-10-17T05:14:22.628Z,13.13
2022-10-17T05:16:49.581Z,6.22
2022-10-17T05:19:17.187Z,9.10
2022-10-17T05:21:43.798Z,8.32
2022-10-17T05:24:13.603Z,9.80
2022-10-17T05:26:40.475Z,5.82
2022-10-17T05:29:07.129Z,5.88
2022-10-17T05:31:33.756Z,9.00
2022-10-17T05:34:02.344Z,7.28
2022-10-17T05:36:29.292Z,7.75
2022-10-17T05:38:56.001Z,5.72
2022-10-17T05:41:23.905Z,7.35
2022-10-17T05:43:50.816Z,14.63
2022-10-17T05:46:17.661Z,7.72
2022-10-17T05:48:44.391Z,6.65
2022-10-17T05:51:15.719Z,12.57
2022-10-17T05:53:42.686Z,4.93
2022-10-17T05:56:11.508Z,8.80
2022-10-17T05:59:00.673Z,9.90
2022-10-17T06:01:27.985Z,9.18
2022-10-17T06:03:54.508Z,6.13
2022-10-17T06:06:21.588Z,8.23
2022-10-17T06:08:48.107Z,6.70
2022-10-17T06:11:14.868Z,11.60
2022-10-17T06:13:41.537Z,6.00
2022-10-17T06:16:08.343Z,6.90
2022-10-17T06:18:35.090Z,9.07
2022-10-17T06:21:04.181Z,7.93
2022-10-17T06:23:31.161Z,9.43
2022-10-17T06:26:02.048Z,5.88
2022-10-17T06:28:28.824Z,8.23
2022-10-17T06:30:55.742Z,9.50
2022-10-17T06:33:25.775Z,10.57
2022-10-17T06:35:58.854Z,4.97
2022-10-17T06:38:25.541Z,5.53
2022-10-17T06:40:54.103Z,10.23
2022-10-17T06:43:25.582Z,5.95
2022-10-17T06:45:54.527Z,6.30
2022-10-17T06:48:21.048Z,4.45
2022-10-17T06:50:47.735Z,5.25
2022-10-17T06:53:14.268Z,5.70
2022-10-17T06:55:41.010Z,6.70
2022-10-17T06:58:07.545Z,6.33
2022-10-17T07:00:34.397Z,7.82
2022-10-17T07:03:01.017Z,6.05
2022-10-17T07:05:29.647Z,3.97
2022-10-17T07:07:56.249Z,4.88
2022-10-17T07:10:23.366Z,5.83
2022-10-17T07:12:49.943Z,4.35
2022-10-17T07:15:16.606Z,6.63
2022-10-17T07:17:43.554Z,8.65
2022-10-17T07:20:10.750Z,8.75
2022-10-17T07:22:37.307Z,5.07
2022-10-17T07:25:04.323Z,5.53
2022-10-17T07:27:31.103Z,5.57
2022-10-17T07:29:57.837Z,8.88
2022-10-17T07:32:24.393Z,7.15
2022-10-17T07:34:50.893Z,9.37
2022-10-17T07:37:17.376Z,5.10
2022-10-17T07:39:44.068Z,5.22
2022-10-17T07:42:10.810Z,5.18
2022-10-17T07:44:37.318Z,5.97
2022-10-17T07:47:04.401Z,5.03
2022-10-17T07:49:31.868Z,4.53
2022-10-17T07:51:58.696Z,8.75
2022-10-17T07:54:25.429Z,6.05
2022-10-17T07:56:52.045Z,6.60
2022-10-17T07:59:18.747Z,4.97
2022-10-17T08:01:45.476Z,4.20
2022-10-17T08:04:12.049Z,5.25
2022-10-17T08:06:41.085Z,5.28
2022-10-17T08:09:07.717Z,6.18
2022-10-17T08:11:36.441Z,8.17
2022-10-17T08:14:03.482Z,5.32
2022-10-17T08:16:30.418Z,9.85
2022-10-17T08:18:57.448Z,6.70
2022-10-17T08:21:24.062Z,5.78
2022-10-17T08:23:50.828Z,3.07
2022-10-17T08:26:18.958Z,5.95
2022-10-17T08:28:46.936Z,8.15
2022-10-17T08:31:21.167Z,4.97
2022-10-17T08:33:50.386Z,6.45
2022-10-17T08:36:19.461Z,4.03
2022-10-17T08:38:50.339Z,6.93
2022-10-17T08:41:45.460Z,4.55
2022-10-17T08:44:30.526Z,6.55
2022-10-17T08:47:02.526Z,6.75
2022-10-17T08:49:47.921Z,4.17
2022-10-17T08:52:34.279Z,5.43
2022-10-17T08:55:01.046Z,7.15
2022-10-17T08:57:30.715Z,4.25
2022-10-17T08:59:58.811Z,9.68
2022-10-17T09:02:56.648Z,10.30
2022-10-17T09:05:30.277Z,6.13
2022-10-17T09:08:28.899Z,7.88
2022-10-17T09:10:59.091Z,4.85
2022-10-17T09:13:38.285Z,7.78
2022-10-17T09:16:39.978Z,7.23
2022-10-17T09:19:28.558Z,5.90
2022-10-17T09:22:17.416Z,5.43
2022-10-17T09:24:55.678Z,4.13
2022-10-17T09:27:40.591Z,3.90
2022-10-17T09:30:17.200Z,4.80
2022-10-17T09:33:00.093Z,4.43
2022-10-17T09:35:28.898Z,6.68
2022-10-17T09:37:55.550Z,4.13
2022-10-17T09:40:29.077Z,4.80
2022-10-17T09:42:55.736Z,5.83
2022-10-17T09:45:27.225Z,4.40
2022-10-17T09:48:11.498Z,6.78
2022-10-17T09:50:38.522Z,6.25
2022-10-17T09:53:17.152Z,5.03
2022-10-17T09:55:48.321Z,5.27
2022-10-17T09:58:14.929Z,7.95
2022-10-17T10:00:44.971Z,8.98
2022-10-17T10:03:26.125Z,4.88
2022-10-17T10:06:03.451Z,4.40
2022-10-17T10:08:35.646Z,4.60
2022-10-17T10:11:07.854Z,4.20
2022-10-17T10:13:39.147Z,3.70
2022-10-17T10:16:30.084Z,4.40
2022-10-17T10:18:56.788Z,5.03
2022-10-17T10:21:27.632Z,3.57
2022-10-17T10:24:05.277Z,4.38
2022-10-17T10:26:44.979Z,4.53
2022-10-17T10:29:26.764Z,3.67
2022-10-17T10:31:56.865Z,4.68
2022-10-17T10:34:31.125Z,3.87
2022-10-17T10:37:02.287Z,4.95
2022-10-17T10:39:41.754Z,4.07
2022-10-17T10:42:21.413Z,4.68
2022-10-17T10:44:49.828Z,3.42
2022-10-17T10:47:22.557Z,3.30
2022-10-17T10:49:52.705Z,4.22
2022-10-17T10:52:29.415Z,4.07
2022-10-17T10:55:21.133Z,2.95
2022-10-17T10:57:49.699Z,3.97
2022-10-17T11:00:21.257Z,2.87
2022-10-17T11:03:01.800Z,3.17
2022-10-17T11:05:31.172Z,3.75
2022-10-17T11:08:11.969Z,3.95
2022-10-17T11:10:48.294Z,3.78
2022-10-17T11:13:22.636Z,2.90
2022-10-17T11:16:01.249Z,5.72
2022-10-17T11:18:44.796Z,3.30
2022-10-17T11:21:19.035Z,2.58
2022-10-17T11:23:56.628Z,3.03
2022-10-17T11:26:29.085Z,3.00
2022-10-17T11:29:02.389Z,3.05
2022-10-17T11:31:34.624Z,2.90
2022-10-17T11:34:19.621Z,4.53
2022-10-17T11:36:57.652Z,4.70
2022-10-17T11:42:21.933Z,4.28
2022-10-17T11:44:52.691Z,3.63
2022-10-17T11:47:55.675Z,1.90
2022-10-17T11:53:24.666Z,2.77
2022-10-17T11:55:58.090Z,2.20
2022-10-17T12:01:09.583Z,3.10
2022-10-17T12:04:05.210Z,5.22
2022-10-17T12:07:11.105Z,3.13
2022-10-17T12:09:43.773Z,4.38
2022-10-17T12:12:10.345Z,2.97
2022-10-17T12:14:45.869Z,3.95
2022-10-17T12:17:39.568Z,3.05
2022-10-17T12:20:24.906Z,3.73
2022-10-17T12:22:52.604Z,4.68
2022-10-17T12:25:22.772Z,3.15
2022-10-17T12:27:51.267Z,3.08
2022-10-17T12:30:28.183Z,4.57
2022-10-17T12:33:22.357Z,2.53
2022-10-17T12:35:52.914Z,3.85
2022-10-17T12:38:24.167Z,4.82
2022-10-17T12:40:56.346Z,4.07
2022-10-17T12:43:28.834Z,5.18
2022-10-17T12:45:56.103Z,3.33
2022-10-17T12:48:35.252Z,4.97
2022-10-17T12:54:15.227Z,3.28
2022-10-17T12:56:45.819Z,4.90
2022-10-17T12:59:24.283Z,3.03
2022-10-17T13:01:59.420Z,3.60
2022-10-17T13:04:29.118Z,3.70
2022-10-17T13:06:58.971Z,3.55
2022-10-17T13:09:36.214Z,3.38
2022-10-17T13:12:10.873Z,2.70
2022-10-17T13:14:41.877Z,6.78
2022-10-17T13:17:25.972Z,4.00
2022-10-17T13:19:53.028Z,4.40
2022-10-17T13:22:22.783Z,4.22
2022-10-17T13:24:50.955Z,3.63
2022-10-17T13:27:30.427Z,4.45
2022-10-17T13:29:59.619Z,5.03
2022-10-17T13:32:46.376Z,4.22
2022-10-17T13:40:49.218Z,4.72
2022-10-17T13:43:21.900Z,4.22
2022-10-17T13:45:53.612Z,4.25
2022-10-17T13:48:27.642Z,4.72
2022-10-17T13:51:02.661Z,6.70
2022-10-17T13:53:37.341Z,5.95
2022-10-17T13:56:29.976Z,3.50
2022-10-17T13:59:00.428Z,3.40
2022-10-17T14:01:29.314Z,3.92
2022-10-17T14:04:09.334Z,3.47
2022-10-17T14:06:53.935Z,3.40
2022-10-17T14:09:37.683Z,5.95
2022-10-17T14:12:12.864Z,3.95
2022-10-17T14:15:08.784Z,3.60
2022-10-17T14:17:34.230Z,3.70
2022-10-17T14:20:34.141Z,3.80
2022-10-17T14:23:17.449Z,5.95
2022-10-17T14:25:41.618Z,3.78
2022-10-17T14:28:11.908Z,5.35
2022-10-17T14:30:56.183Z,2.80
2022-10-17T14:33:31.491Z,3.35
2022-10-17T14:36:00.919Z,3.45
2022-10-17T14:38:29.084Z,2.50
2022-10-17T14:44:04.828Z,3.97
2022-10-17T14:46:35.952Z,3.25
2022-10-17T14:49:24.329Z,4.07
2022-10-17T14:52:29.712Z,3.70
2022-10-17T14:58:29.149Z,4.57
2022-10-17T15:01:11.470Z,5.03
2022-10-17T15:03:41.174Z,4.30
2022-10-17T15:06:25.867Z,6.35
2022-10-17T15:08:52.858Z,4.68
2022-10-17T15:11:19.784Z,6.13
2022-10-17T15:13:46.579Z,3.70
2022-10-17T15:16:18.624Z,5.40
2022-10-17T15:18:45.402Z,3.80
2022-10-17T15:21:26.464Z,4.13
2022-10-17T15:24:02.241Z,10.93
2022-10-17T15:26:35.786Z,4.30
2022-10-17T15:29:04.301Z,3.42
2022-10-17T15:31:33.796Z,5.18
2022-10-17T15:34:00.491Z,5.90
2022-10-17T15:36:34.512Z,5.40
2022-10-17T15:39:02.177Z,6.78
2022-10-17T15:41:31.480Z,4.38
2022-10-17T15:43:59.389Z,3.95
2022-10-17T15:46:29.175Z,4.72
2022-10-17T15:48:57.686Z,2.90
2022-10-17T15:51:27.488Z,4.05
2022-10-17T15:53:54.041Z,6.10
2022-10-17T15:56:24.503Z,4.32
2022-10-17T15:58:51.502Z,5.90
2022-10-17T16:01:23.874Z,5.87
2022-10-17T16:03:51.428Z,3.63
2022-10-17T16:06:23.934Z,6.20
2022-10-17T16:08:51.108Z,4.15
2022-10-17T16:11:35.484Z,4.70
2022-10-17T16:14:09.958Z,4.83
2022-10-17T16:16:36.652Z,3.42
2022-10-17T16:19:05.789Z,4.88
2022-10-17T16:21:35.394Z,3.80
2022-10-17T16:24:02.886Z,4.25
2022-10-17T16:26:29.859Z,4.03
2022-10-17T16:28:58.143Z,3.45
2022-10-17T16:31:28.813Z,8.27
2022-10-17T16:33:57.654Z,4.05
2022-10-17T16:36:27.730Z,5.05
2022-10-17T16:38:54.612Z,4.13
2022-10-17T16:41:28.492Z,6.10
2022-10-17T16:43:59.696Z,4.40
2022-10-17T16:46:28.257Z,3.85
2022-10-17T16:48:55.445Z,4.32
2022-10-17T16:51:23.492Z,6.77
2022-10-17T16:53:52.831Z,3.88
2022-10-17T16:56:22.750Z,3.85
2022-10-17T16:58:50.432Z,7.25
2022-10-17T17:01:24.617Z,5.72
2022-10-17T17:03:54.536Z,4.10
2022-10-17T17:06:24.881Z,4.13
2022-10-17T17:08:51.551Z,4.60
2022-10-17T17:11:21.691Z,3.53
2022-10-17T17:13:48.869Z,6.10
2022-10-17T17:16:19.463Z,9.03
2022-10-17T17:18:51.972Z,4.63
2022-10-17T17:21:18.776Z,6.05
2022-10-17T17:23:45.349Z,3.15
2022-10-17T17:26:16.186Z,8.13
2022-10-17T17:28:43.859Z,3.30
2022-10-17T17:31:16.013Z,4.53
2022-10-17T17:33:46.932Z,4.40
2022-10-17T17:36:21.419Z,3.55
2022-10-17T17:38:50.035Z,6.93
2022-10-17T17:41:19.217Z,6.40
2022-10-17T17:43:47.096Z,4.22
2022-10-17T17:46:16.709Z,5.82
2022-10-17T17:48:44.838Z,4.88
2022-10-17T17:51:15.619Z,5.10
2022-10-17T17:53:43.228Z,6.23
2022-10-17T17:56:16.831Z,6.68
2022-10-17T17:58:48.483Z,5.20
2022-10-17T18:01:20.396Z,4.78
2022-10-17T18:03:52.230Z,7.20
2022-10-17T18:06:20.285Z,6.07
2022-10-17T18:08:49.668Z,4.90
2022-10-17T18:11:21.979Z,4.97
2022-10-17T18:13:54.205Z,6.55
2022-10-17T18:16:22.155Z,3.60
2022-10-17T18:18:49.019Z,4.23
2022-10-17T18:21:16.375Z,7.72
2022-10-17T18:23:45.733Z,6.60
2022-10-17T18:26:12.954Z,4.45
2022-10-17T18:31:10.318Z,4.40
2022-10-17T18:33:36.936Z,7.28
2022-10-17T18:36:08.983Z,8.80
2022-10-17T18:38:35.701Z,5.53
2022-10-17T18:41:04.368Z,6.05
2022-10-17T18:43:33.300Z,5.37
2022-10-17T18:46:14.079Z,5.25
2022-10-17T18:48:44.705Z,7.90
2022-10-17T18:51:12.547Z,7.78
2022-10-17T18:53:41.566Z,6.03
2022-10-17T18:56:09.607Z,9.63
2022-10-17T18:58:40.995Z,9.20
2022-10-17T19:01:15.637Z,6.95
2022-10-17T19:03:43.901Z,5.50
2022-10-17T19:06:14.817Z,9.05
2022-10-17T19:08:45.676Z,7.90
2022-10-17T19:11:15.460Z,10.48
2022-10-17T19:13:42.931Z,10.10
2022-10-17T19:16:12.931Z,5.82
2022-10-17T19:18:39.732Z,6.25
2022-10-17T19:21:08.710Z,7.10
2022-10-17T19:23:36.262Z,6.10
2022-10-17T19:26:10.682Z,7.57
2022-10-17T19:28:39.409Z,7.50
2022-10-17T19:31:06.803Z,10.25
2022-10-17T19:33:34.519Z,6.20
2022-10-17T19:36:04.773Z,6.78
2022-10-17T19:38:31.588Z,7.22
2022-10-17T19:43:26.325Z,9.30
2022-10-17T19:46:01.902Z,6.50
2022-10-17T19:48:32.150Z,9.85
2022-10-17T19:50:59.449Z,7.55
2022-10-17T19:53:27.873Z,9.10
2022-10-17T19:55:54.676Z,7.95
2022-10-17T19:58:21.577Z,9.77
2022-10-17T20:00:50.034Z,8.00
2022-10-17T20:03:17.484Z,11.85
2022-10-17T20:05:45.310Z,8.35
2022-10-17T20:08:12.516Z,8.93
2022-10-17T20:10:39.314Z,8.70
2022-10-17T20:13:06.033Z,11.55
2022-10-17T20:15:32.908Z,11.07
2022-10-17T20:18:00.401Z,10.77
2022-10-17T20:20:27.840Z,8.73
2022-10-17T20:22:54.652Z,8.57
2022-10-17T20:25:21.720Z,12.07
2022-10-17T20:27:48.414Z,8.70
2022-10-17T20:30:15.565Z,12.07
2022-10-17T20:32:42.096Z,8.45
2022-10-17T20:35:09.304Z,15.20
2022-10-17T20:37:41.560Z,12.13
2022-10-17T20:40:33.522Z,9.88
2022-10-17T20:42:57.811Z,10.32
2022-10-17T20:45:37.520Z,10.30
2022-10-17T20:48:15.167Z,9.57
2022-10-17T20:50:44.668Z,10.30
2022-10-17T20:56:18.040Z,18.67
2022-10-17T20:58:44.651Z,13.80
2022-10-17T21:01:11.330Z,16.83
2022-10-17T21:03:42.349Z,10.15
2022-10-17T21:06:12.660Z,12.65
2022-10-17T21:08:39.362Z,15.57
2022-10-17T21:11:15.509Z,12.30
2022-10-17T21:13:42.547Z,12.53
2022-10-17T21:16:12.262Z,11.45
2022-10-17T21:18:39.425Z,10.02
2022-10-17T21:21:15.368Z,11.45
2022-10-17T21:23:44.530Z,10.25
2022-10-17T21:26:14.538Z,15.33
2022-10-17T21:28:42.202Z,12.13
2022-10-17T21:31:12.608Z,11.30
2022-10-17T21:33:40.322Z,10.30
2022-10-17T21:36:07.780Z,10.70
2022-10-17T21:38:36.323Z,10.17
2022-10-17T21:41:03.879Z,10.90
2022-10-17T21:43:30.989Z,13.88
2022-10-17T21:46:02.168Z,13.00
2022-10-17T21:48:28.853Z,11.43
2022-10-17T21:51:02.694Z,10.57
2022-10-17T21:53:29.612Z,13.07
2022-10-17T21:55:59.945Z,14.73
2022-10-17T21:58:26.961Z,14.05
2022-10-17T22:00:53.746Z,12.05
2022-10-17T22:03:20.884Z,11.20
2022-10-17T22:05:47.548Z,10.05
2022-10-17T22:08:14.108Z,10.90
2022-10-17T22:10:40.963Z,10.52
2022-10-17T22:13:10.404Z,14.07
2022-10-17T22:15:37.079Z,13.13
2022-10-17T22:18:03.802Z,19.13
2022-10-17T22:20:30.385Z,10.63
2022-10-17T22:22:57.063Z,9.75
2022-10-17T22:25:23.615Z,10.60
2022-10-17T22:27:50.222Z,12.33
2022-10-17T22:30:16.876Z,10.30
2022-10-17T22:32:44.010Z,9.27
2022-10-17T22:35:10.540Z,9.45
2022-10-17T22:37:37.282Z,11.98
2022-10-17T22:40:05.638Z,9.57
2022-10-17T22:42:34.421Z,7.55
2022-10-17T22:45:04.910Z,6.72
2022-10-17T22:47:31.861Z,7.82
2022-10-17T22:49:58.665Z,8.45
2022-10-17T22:52:25.199Z,9.43
2022-10-17T22:54:52.042Z,10.20
2022-10-17T22:57:18.503Z,8.65
2022-10-17T22:59:46.413Z,8.93
2022-10-17T23:02:13.079Z,11.80
2022-10-17T23:04:39.630Z,12.70
2022-10-17T23:07:11.239Z,10.02
2022-10-17T23:09:38.041Z,9.90
2022-10-17T23:12:05.015Z,10.05
2022-10-17T23:14:31.615Z,8.38
2022-10-17T23:16:58.092Z,9.63
2022-10-17T23:19:24.695Z,10.30
2022-10-17T23:21:51.187Z,9.43
2022-10-17T23:24:20.485Z,9.75
2022-10-17T23:26:47.107Z,14.18
2022-10-17T23:29:13.812Z,11.37
2022-10-17T23:31:40.377Z,8.52
2022-10-17T23:34:07.128Z,13.18
2022-10-17T23:36:33.802Z,8.45
2022-10-17T23:39:00.545Z,10.68
2022-10-17T23:41:27.143Z,11.27
2022-10-17T23:43:53.724Z,12.45
2022-10-17T23:46:22.143Z,11.27
2022-10-17T23:48:48.717Z,10.23
2022-10-17T23:51:15.516Z,10.80
2022-10-17T23:53:42.540Z,7.63
2022-10-17T23:56:10.209Z,9.23
2022-10-17T23:58:37.436Z,8.23
